Thunder radar more information blitzortung!


Radar de pluja more information rain snow radar


Visita la nostra xarxa de llocs de meteo:

Template documentation
and downloads

And another site



No particular awareness of the weather is required.    There are no Weather-warnings

Pagina Historial Weather Underground text

Diari Resum May 30, 2017 Unitats:  Mètric    Imperial   Tant
« Previous Dia
SegĂźent Dia »
Diari Setmana Mensual Anual Personalitzada
  Maxima: Minima: Media:
Temperatura: -17.8 °C -9.3 °C -6.9 °C
Punt de rosada: -17.8 °C -13.6 °C -12.2 °C
Humitat: Humidity % 43 % 55 %
Wind Speed: 0 km/h 0 km/h 8.5 km/h
RĂ fegues de vent: 0 km/h - -
Vent:- - East
Pression baro: 0 hPa 34327.3 hPa -
Precipitacions: 25.4 mm    
Historical Graphs
 
 
Dades de taula per May 30, 2017
Temps Temperatura Punt de rosada Pression baro Vent Wind Speed RĂ fegues de vent Humitat Rainfall Rate (Hourly)
-17.8 °C -17.8 °C 0 hPa Calm     Humidity % 0 mm
00:00 -6.7 °C -13.6 °C 34361.1 hPa NE 6 km/h   45 % 0 mm
00:05 -8.7 °C -13.3 °C 34327.3 hPa WSW 2.6 km/h 5.1 km/h 58 % 0 mm
00:15 -8.6 °C -13.2 °C 34327.3 hPa Calm   5.1 km/h 58 % 0 mm
00:25 -8.6 °C -13.2 °C 34327.3 hPa Calm     58 % 0 mm
00:35 -8.7 °C -13.3 °C 34327.3 hPa Calm   2.6 km/h 58 % 0 mm
00:45 -8.6 °C -13.1 °C 34361.1 hPa WNW 2.6 km/h 2.6 km/h 59 % 0 mm
00:55 -8.6 °C -13.1 °C 34361.1 hPa Calm     59 % 0 mm
01:05 -8.6 °C -13.1 °C 34361.1 hPa NNE 2.6 km/h 5.1 km/h 59 % 0 mm
01:15 -8.7 °C -13.1 °C 34361.1 hPa NNE 5.1 km/h 7.7 km/h 59 % 0 mm
01:25 -8.7 °C -13.2 °C 34361.1 hPa NE 2.6 km/h 7.7 km/h 59 % 0 mm
01:35 -8.7 °C -13.3 °C 34361.1 hPa NE 5.1 km/h 5.1 km/h 58 % 0 mm
01:45 -8.7 °C -13.3 °C 34361.1 hPa NNE 2.6 km/h 5.1 km/h 58 % 0 mm
01:55 -8.8 °C -13.4 °C 34361.1 hPa NE 5.1 km/h 7.7 km/h 58 % 0 mm
02:05 -8.8 °C -13.4 °C 34361.1 hPa NE 5.1 km/h 5.1 km/h 58 % 0 mm
02:15 -8.8 °C -13.1 °C 34395 hPa NNW 7.7 km/h 7.7 km/h 60 % 0 mm
02:25 -8.7 °C -13 °C 34361.1 hPa NNE 2.6 km/h 7.7 km/h 60 % 0 mm
02:35 -8.8 °C -12.9 °C 34361.1 hPa NNE 5.1 km/h 7.7 km/h 61 % 0 mm
02:45 -8.8 °C -12.9 °C 34395 hPa Calm   7.7 km/h 62 % 0 mm
02:55 -8.7 °C -12.8 °C 34395 hPa SSE 5.1 km/h 7.7 km/h 62 % 0 mm
03:05 -8.7 °C -12.8 °C 34395 hPa Calm   5.1 km/h 62 % 0 mm
03:15 -8.7 °C -12.7 °C 34395 hPa NNE 2.6 km/h 5.1 km/h 63 % 0 mm
03:25 -8.9 °C -12.4 °C 34395 hPa NNE 7.7 km/h 10.3 km/h 66 % 0 mm
03:35 -9.1 °C -12.3 °C 34395 hPa NNE 7.7 km/h 10.3 km/h 69 % 0 mm
03:45 -9.2 °C -12.2 °C 34395 hPa NE 12.9 km/h 15.6 km/h 70 % 0 mm
03:55 -9.2 °C -11.5 °C 34395 hPa NE 18.2 km/h 25.9 km/h 76 % 0 mm
04:05 -9.2 °C -11.7 °C 34395 hPa NNE 2.6 km/h 10.3 km/h 75 % 0 mm
04:15 -9.3 °C -11.4 °C 34395 hPa NW 2.6 km/h 10.3 km/h 78 % 0 mm
04:25 -9.2 °C -11.3 °C 34395 hPa West 7.7 km/h 10.3 km/h 78 % 25.4 mm
04:35 -9.1 °C -11.3 °C 34395 hPa NNE 2.6 km/h 7.7 km/h 77 % 25.4 mm
04:45 -8.9 °C -11.2 °C 34395 hPa NNE 5.1 km/h 7.7 km/h 77 % 0 mm
04:55 -8.8 °C -11 °C 34395 hPa NE 5.1 km/h 12.9 km/h 77 % 0 mm
05:05 -8.7 °C -10.9 °C 34395 hPa NE 2.6 km/h 7.7 km/h 78 % 0 mm
05:15 -8.7 °C -10.9 °C 34395 hPa North 2.6 km/h 15.6 km/h 77 % 0 mm
05:25 -8.7 °C -11.1 °C 34395 hPa NNE 2.6 km/h 5.1 km/h 76 % 0 mm
05:35 -8.6 °C -10.9 °C 34395 hPa NE 5.1 km/h 7.7 km/h 76 % 0 mm
05:45 -8.3 °C -10.9 °C 34395 hPa NE 2.6 km/h 10.3 km/h 74 % 0 mm
05:50 -8.3 °C -10.9 °C 34395 hPa NE 7.7 km/h 12.9 km/h 74 % 0 mm
10:51 -8.3 °C -11.1 °C 34428.8 hPa NE 9 km/h 9.8 km/h 73 % 25.4 mm
10:56 -8.3 °C -11 °C 34428.8 hPa East 9.8 km/h 9.8 km/h 73 % 25.4 mm
11:01 -8.2 °C -10.9 °C 34428.8 hPa ENE 6 km/h 6 km/h 73 % 25.4 mm
11:06 -7.9 °C -10.7 °C 34395 hPa ENE 6.8 km/h   73 % 0 mm
11:11 -7.8 °C -10.6 °C 34395 hPa ENE 9 km/h 9 km/h 73 % 0 mm
11:12 -7.8 °C -10.5 °C 34395 hPa NNE 6.8 km/h 7.6 km/h 73 % 0 mm
11:17 -7.7 °C -10.5 °C 34395 hPa NNE 11.9 km/h 11.9 km/h 72 % 0 mm
11:22 -7.4 °C -10.2 °C 34395 hPa ENE 9 km/h 9 km/h 72 % 0 mm
11:27 -7.3 °C -10.3 °C 34395 hPa WNW 15 km/h 15 km/h 71 % 0 mm
11:32 -7.1 °C -10.2 °C 34395 hPa NE 9 km/h 9 km/h 70 % 0 mm
11:37 -7.1 °C -10.3 °C 34395 hPa ENE 6 km/h 6.8 km/h 69 % 0 mm
11:42 -6.9 °C -10.1 °C 34395 hPa NNW 9 km/h 9 km/h 69 % 0 mm
11:47 -6.9 °C -10.2 °C 34395 hPa North 9 km/h 9 km/h 68 % 0 mm
11:52 -6.9 °C -10.2 °C 34395 hPa ENE 15 km/h 15 km/h 68 % 0 mm
11:57 -6.8 °C -10.2 °C 34395 hPa ENE 9 km/h 9 km/h 68 % 0 mm
12:02 -6.7 °C -10.2 °C 34395 hPa ENE 6 km/h 6 km/h 67 % 0 mm
12:07 -6.6 °C -10.2 °C 34395 hPa NNW 6 km/h 6 km/h 66 % 0 mm
12:12 -6.5 °C -10.4 °C 34395 hPa NNE 6 km/h 6 km/h 64 % 0 mm
12:17 -6.3 °C -10.2 °C 34395 hPa SW 10.3 km/h 10.3 km/h 64 % 0 mm
12:22 -6.2 °C -10.4 °C 34361.1 hPa WSW 8 km/h 8 km/h 62 % 0 mm
12:27 -6.2 °C -10.4 °C 34361.1 hPa NW 9 km/h 9 km/h 62 % 0 mm
12:32 -6.1 °C -10.6 °C 34361.1 hPa WSW 6.3 km/h   60 % 0 mm
12:37 -6 °C -10.6 °C 34395 hPa West 6 km/h 6 km/h 59 % 0 mm
12:42 -5.9 °C -10.7 °C 34395 hPa ESE 9 km/h 9 km/h 58 % 0 mm
12:46 -6 °C -10.8 °C 34395 hPa ENE 6 km/h 6 km/h 58 % 0 mm
12:51 -6.2 °C -11.1 °C 34395 hPa NE 11.9 km/h 11.9 km/h 57 % 0 mm
12:56 -6.2 °C -11.2 °C 34395 hPa ENE 11.9 km/h 11.9 km/h 56 % 0 mm
13:01 -6.1 °C -11 °C 34395 hPa SSE 6.8 km/h 6.8 km/h 57 % 0 mm
13:06 -6 °C -10.9 °C 34395 hPa East 6 km/h 6 km/h 57 % 0 mm
13:11 -6.1 °C -11.2 °C 34395 hPa East 12.7 km/h 12.7 km/h 56 % 0 mm
13:16 -6.2 °C -11.1 °C 34395 hPa ESE 9 km/h 9 km/h 57 % 0 mm
13:21 -6.2 °C -11.3 °C 34395 hPa ENE 9 km/h 9 km/h 56 % 0 mm
13:26 -6.2 °C -11.4 °C 34395 hPa East 11.9 km/h 11.9 km/h 55 % 0 mm
13:31 -6.2 °C -11.7 °C 34395 hPa ESE 15 km/h 15 km/h 53 % 0 mm
13:36 -6.2 °C -11.6 °C 34395 hPa NE 11.9 km/h 11.9 km/h 54 % 0 mm
13:41 -6.2 °C -11.7 °C 34395 hPa East 17.9 km/h 17.9 km/h 53 % 0 mm
13:46 -6.1 °C -11.6 °C 34395 hPa SE 11.9 km/h 11.9 km/h 53 % 0 mm
13:51 -6 °C -11.7 °C 34395 hPa East 15 km/h 15 km/h 52 % 0 mm
13:56 -5.9 °C -11.6 °C 34395 hPa SSE 11.9 km/h 11.9 km/h 52 % 0 mm
14:01 -5.7 °C -11.4 °C 34395 hPa ESE 10.3 km/h 10.3 km/h 52 % 0 mm
14:06 -5.8 °C -11.7 °C 34428.8 hPa SSE 17.9 km/h 17.9 km/h 51 % 0 mm
14:11 -5.8 °C -11.9 °C 34428.8 hPa East 15 km/h 15 km/h 50 % 0 mm
14:16 -5.8 °C -11.9 °C 34428.8 hPa East 23.8 km/h 23.8 km/h 50 % 0 mm
14:21 -5.9 °C -12.1 °C 34428.8 hPa ESE 20.9 km/h 20.9 km/h 49 % 0 mm
14:26 -5.9 °C -12 °C 34428.8 hPa East 15 km/h 15 km/h 50 % 0 mm
14:31 -5.9 °C -11.9 °C 34428.8 hPa East 15 km/h 15 km/h 50 % 0 mm
14:36 -5.8 °C -11.9 °C 34428.8 hPa East 15 km/h 15 km/h 50 % 0 mm
14:41 -5.8 °C -11.7 °C 34428.8 hPa ESE 9.8 km/h 9.8 km/h 51 % 0 mm
14:46 -5.7 °C -11.8 °C 34428.8 hPa SE 15 km/h 15 km/h 50 % 0 mm
14:51 -5.6 °C -11.5 °C 34428.8 hPa SSE 9 km/h 9 km/h 51 % 0 mm
14:56 -5.6 °C -11.6 °C 34428.8 hPa SE 15 km/h 15 km/h 50 % 0 mm
15:01 -5.6 °C -11.6 °C 34428.8 hPa SE 15 km/h 15 km/h 50 % 0 mm
15:06 -5.7 °C -11.7 °C 34428.8 hPa SW 15 km/h 15 km/h 50 % 0 mm
15:11 -5.8 °C -12.1 °C 34428.8 hPa East 11.9 km/h 11.9 km/h 49 % 0 mm
15:16 -5.8 °C -12.1 °C 34428.8 hPa SE 11.9 km/h 11.9 km/h 49 % 0 mm
15:21 -5.7 °C -11.7 °C 34428.8 hPa ESE 6.3 km/h 6.3 km/h 50 % 0 mm
15:26 -5.7 °C -11.9 °C 34428.8 hPa ESE 14 km/h 14 km/h 49 % 0 mm
15:31 -5.8 °C -12 °C 34428.8 hPa East 9 km/h 9 km/h 49 % 0 mm
15:36 -5.7 °C -11.9 °C 34428.8 hPa SSE 6.3 km/h 6.3 km/h 49 % 0 mm
15:41 -5.4 °C -11.5 °C 34428.8 hPa SW 9 km/h 9 km/h 50 % 0 mm
15:46 -5.4 °C -11.4 °C 34428.8 hPa East 6.3 km/h   50 % 0 mm
15:52 -5.5 °C -11.7 °C 34428.8 hPa NE 11.9 km/h 11.9 km/h 49 % 0 mm
15:57 -5.5 °C -11.7 °C 34428.8 hPa NE 9 km/h 9 km/h 49 % 0 mm
16:02 -5.5 °C -11.7 °C 34428.8 hPa NE 8 km/h 8 km/h 49 % 0 mm
16:07 -5.6 °C -11.8 °C 34395 hPa ENE 9 km/h 9 km/h 49 % 0 mm
16:12 -5.6 °C -11.8 °C 34395 hPa ESE 17.9 km/h 17.9 km/h 49 % 0 mm
16:17 -5.6 °C -11.8 °C 34395 hPa ESE 15 km/h 15 km/h 49 % 0 mm
16:22 -5.3 °C -11.6 °C 34428.8 hPa SE 6 km/h 6 km/h 49 % 0 mm
16:27 -5.2 °C -11.4 °C 34428.8 hPa SSE 5.1 km/h 5.1 km/h 49 % 0 mm
16:32 -5.2 °C -11.5 °C 34428.8 hPa ESE 6 km/h 6 km/h 49 % 0 mm
16:37 -5.3 °C -11.6 °C 34428.8 hPa NNE 19.6 km/h 19.6 km/h 49 % 0 mm
16:42 -5.4 °C -11.6 °C 34428.8 hPa ENE 11.9 km/h 11.9 km/h 49 % 0 mm
16:47 -5.4 °C -11.6 °C 34428.8 hPa NNE 15 km/h 15 km/h 49 % 0 mm
16:52 -5.4 °C -11.7 °C 34428.8 hPa NE 15 km/h 15 km/h 49 % 0 mm
16:57 -5.4 °C -11.8 °C 34428.8 hPa NNE 15 km/h 15 km/h 48 % 0 mm
17:02 -5.4 °C -11.8 °C 34428.8 hPa NE 15.3 km/h 15.3 km/h 48 % 0 mm
17:07 -5.4 °C -12 °C 34395 hPa East 11.9 km/h 11.9 km/h 47 % 0 mm
17:12 -5.4 °C -12.1 °C 34395 hPa East 15 km/h 15 km/h 47 % 0 mm
17:17 -5.4 °C -12 °C 34395 hPa NE 12.7 km/h 12.7 km/h 47 % 0 mm
17:22 -5.4 °C -12 °C 34428.8 hPa NE 15 km/h 15 km/h 47 % 0 mm
17:27 -5.5 °C -12.1 °C 34428.8 hPa ESE 11.9 km/h 11.9 km/h 47 % 0 mm
17:32 -5.5 °C -12.3 °C 34428.8 hPa ESE 20.9 km/h 20.9 km/h 46 % 0 mm
17:37 -5.5 °C -12.3 °C 34428.8 hPa SSE 15 km/h 15 km/h 46 % 0 mm
17:42 -5.4 °C -12.2 °C 34428.8 hPa NE 20.9 km/h 20.9 km/h 46 % 0 mm
17:47 -5.4 °C -12.1 °C 34428.8 hPa East 9 km/h 9 km/h 47 % 0 mm
17:52 -5.4 °C -12.2 °C 34428.8 hPa East 11.9 km/h 11.9 km/h 46 % 0 mm
17:57 -5.3 °C -11.9 °C 34428.8 hPa ESE 6 km/h 6 km/h 47 % 0 mm
18:02 -5.3 °C -12.1 °C 34428.8 hPa ENE 6.3 km/h 6.3 km/h 46 % 0 mm
18:07 -5.3 °C -12.1 °C 34428.8 hPa NNE 9 km/h 9 km/h 46 % 0 mm
18:12 -5.3 °C -12.1 °C 34428.8 hPa ENE 9 km/h 9 km/h 46 % 0 mm
18:17 -5.2 °C -12 °C 34428.8 hPa NE 15 km/h 15 km/h 46 % 0 mm
18:22 -5.2 °C -12 °C 34395 hPa ESE 17.9 km/h 17.9 km/h 46 % 0 mm
18:27 -5.3 °C -12.1 °C 34395 hPa NNE 15 km/h 15 km/h 46 % 0 mm
18:32 -5.3 °C -12.1 °C 34395 hPa ENE 11.9 km/h 11.9 km/h 46 % 0 mm
18:37 -5.3 °C -12.1 °C 34395 hPa ESE 11.9 km/h 11.9 km/h 46 % 0 mm
18:42 -5.4 °C -12.3 °C 34395 hPa East 15 km/h 15 km/h 45 % 0 mm
18:47 -5.4 °C -12.3 °C 34395 hPa ESE 11.9 km/h 11.9 km/h 45 % 0 mm
18:52 -5.4 °C -12.2 °C 34395 hPa ENE 15.3 km/h 15.3 km/h 46 % 0 mm
18:57 -5.3 °C -12.3 °C 34395 hPa ENE 11.9 km/h 11.9 km/h 45 % 0 mm
19:02 -5.3 °C -12.3 °C 34395 hPa ENE 11.9 km/h 11.9 km/h 45 % 0 mm
19:07 -5.3 °C -12.3 °C 34395 hPa East 15 km/h 15 km/h 45 % 0 mm
19:12 -5.3 °C -12.4 °C 34395 hPa NNE 15 km/h 15 km/h 44 % 0 mm
19:15 -8 °C -12.8 °C 34462.7 hPa Calm   5.1 km/h 57 % 0 mm
19:17 -5.3 °C -12.4 °C 34395 hPa ENE 16.6 km/h 16.6 km/h 44 % 0 mm
19:22 -5.3 °C -12.4 °C 34395 hPa ESE 11.9 km/h 11.9 km/h 44 % 0 mm
19:25 -8 °C -12.7 °C 34428.8 hPa Calm     58 % 0 mm
19:27 -5.3 °C -12.4 °C 34395 hPa ENE 15 km/h 15 km/h 44 % 0 mm
19:32 -5.3 °C -12.4 °C 34395 hPa ESE 12.7 km/h 12.7 km/h 44 % 0 mm
19:35 -8.1 °C -12.7 °C 34428.8 hPa Calm     58 % 0 mm
19:37 -5.4 °C -12.6 °C 34361.1 hPa East 17.9 km/h 17.9 km/h 44 % 0 mm
19:42 -5.4 °C -12.6 °C 34361.1 hPa ENE 20.9 km/h 20.9 km/h 44 % 0 mm
19:45 -8.3 °C -12.8 °C 34462.7 hPa WSW 5.1 km/h 5.1 km/h 59 % 0 mm
19:47 -5.4 °C -12.7 °C 34361.1 hPa East 23.8 km/h 23.8 km/h 43 % 0 mm
19:52 -5.4 °C -12.8 °C 34395 hPa SE 11.9 km/h 11.9 km/h 43 % 0 mm
19:55 -8.4 °C -12.6 °C 34462.7 hPa Calm   7.7 km/h 61 % 0 mm
19:57 -5.5 °C -12.8 °C 34395 hPa ESE 17.9 km/h 17.9 km/h 43 % 0 mm
20:02 -5.5 °C -12.8 °C 34395 hPa ESE 20.9 km/h 20.9 km/h 43 % 0 mm
20:05 -8.4 °C -12.6 °C 34462.7 hPa Calm   2.6 km/h 61 % 0 mm
20:07 -5.6 °C -12.9 °C 34395 hPa ENE 17.9 km/h 17.9 km/h 43 % 0 mm
20:12 -5.6 °C -12.9 °C 34395 hPa ESE 15 km/h 15 km/h 43 % 0 mm
20:15 -8.4 °C -12.4 °C 34462.7 hPa Calm     62 % 0 mm
20:17 -5.6 °C -12.9 °C 34395 hPa ESE 15 km/h 15 km/h 43 % 0 mm
20:22 -5.7 °C -12.8 °C 34395 hPa ESE 11.9 km/h 11.9 km/h 44 % 0 mm
20:24 -5.7 °C -13 °C 34395 hPa East 15 km/h 15 km/h 43 % 0 mm
20:25 -8.4 °C -12.5 °C 34462.7 hPa Calm     62 % 0 mm
20:29 -5.8 °C -12.9 °C 34395 hPa ESE 11.9 km/h 11.9 km/h 44 % 0 mm
20:34 -5.9 °C -13 °C 34395 hPa ENE 6 km/h 6 km/h 44 % 0 mm
20:35 -8.6 °C -12.5 °C 34462.7 hPa Calm   2.6 km/h 63 % 0 mm
20:39 -5.9 °C -13 °C 34395 hPa East 15 km/h 15 km/h 44 % 0 mm
20:44 -6 °C -12.9 °C 34395 hPa East 15 km/h 15 km/h 45 % 0 mm
20:45 -8.6 °C -12.5 °C 34428.8 hPa Calm   2.6 km/h 63 % 0 mm
20:49 -6.1 °C -12.9 °C 34395 hPa SE 15 km/h 15 km/h 45 % 0 mm
20:54 -6.1 °C -13 °C 34395 hPa ESE 8 km/h 8 km/h 45 % 0 mm
20:55 -8.5 °C -12.4 °C 34462.7 hPa Calm   5.1 km/h 63 % 0 mm
20:59 -6.2 °C -12.9 °C 34395 hPa SSE 9 km/h 9 km/h 46 % 0 mm
21:04 -6.3 °C -12.9 °C 34395 hPa SE 10.3 km/h 10.3 km/h 46 % 0 mm
21:05 -8.6 °C -12.5 °C 34462.7 hPa NNW 2.6 km/h 5.1 km/h 63 % 0 mm
21:09 -6.3 °C -13 °C 34395 hPa ESE 9 km/h 9 km/h 46 % 0 mm
21:14 -6.4 °C -13.1 °C 34395 hPa SSE 11.9 km/h 11.9 km/h 46 % 0 mm
21:15 -8.3 °C -12.5 °C 34462.7 hPa NNW 5.1 km/h 7.7 km/h 61 % 0 mm
21:19 -6.4 °C -13.1 °C 34395 hPa ESE 9 km/h 9 km/h 46 % 0 mm
21:24 -6.5 °C -13.2 °C 34395 hPa Calm     46 % 0 mm
21:25 -8.3 °C -12.5 °C 34462.7 hPa NNE 5.1 km/h 7.7 km/h 61 % 0 mm
21:29 -6.6 °C -13.1 °C 34395 hPa ENE 3.1 km/h 3.7 km/h 47 % 0 mm
21:34 -6.6 °C -13.1 °C 34395 hPa ENE 6 km/h 6 km/h 47 % 0 mm
21:35 -8.3 °C -12.5 °C 34462.7 hPa NE 5.1 km/h 7.7 km/h 61 % 0 mm
21:39 -6.7 °C -13.2 °C 34395 hPa NNE 3.1 km/h 3.1 km/h 47 % 0 mm
21:44 -6.7 °C -13 °C 34395 hPa NNE 6 km/h 6 km/h 48 % 0 mm
21:45 -8.2 °C -12.3 °C 34462.7 hPa NNE 7.7 km/h 15.6 km/h 62 % 0 mm
21:49 -6.8 °C -13.1 °C 34395 hPa NNE 3.7 km/h 3.7 km/h 48 % 0 mm
21:54 -6.9 °C -13.2 °C 34395 hPa NNE 6 km/h 6 km/h 48 % 0 mm
21:55 -8.3 °C -12.2 °C 34462.7 hPa NNE 12.9 km/h 12.9 km/h 63 % 0 mm
21:59 -6.9 °C -13.2 °C 34395 hPa Calm     48 % 0 mm
22:04 -7 °C -13.3 °C 34395 hPa NNE 2.3 km/h   48 % 0 mm
22:05 -8.3 °C -12.3 °C 34462.7 hPa NE 12.9 km/h 15.6 km/h 63 % 0 mm
22:09 -7.1 °C -13.2 °C 34428.8 hPa Calm     49 % 0 mm
22:14 -7.2 °C -13.3 °C 34428.8 hPa North 3.1 km/h   49 % 0 mm
22:15 -8.3 °C -12.3 °C 34462.7 hPa NE 12.9 km/h 12.9 km/h 63 % 0 mm
22:19 -7.3 °C -13.2 °C 34428.8 hPa Calm     50 % 0 mm
22:24 -7.3 °C -13.2 °C 34462.7 hPa Calm     50 % 0 mm
22:25 -8.4 °C -12.2 °C 34462.7 hPa NE 7.7 km/h 12.9 km/h 64 % 0 mm
22:29 -7.4 °C -13.3 °C 34462.7 hPa NNE 6 km/h 6 km/h 50 % 0 mm
22:34 -7.3 °C -13.1 °C 34462.7 hPa NNE 9 km/h 9 km/h 51 % 0 mm
22:35 -8.4 °C -12.3 °C 34462.7 hPa NNE 5.1 km/h 15.6 km/h 64 % 0 mm
22:39 -7.3 °C -13 °C 34462.7 hPa NNE 6 km/h 6 km/h 51 % 0 mm
22:44 -7.3 °C -13 °C 34462.7 hPa NE 6 km/h 6 km/h 51 % 0 mm
22:45 -8.5 °C -12.3 °C 34462.7 hPa NNE 5.1 km/h 12.9 km/h 64 % 0 mm
22:49 -7.3 °C -13 °C 34462.7 hPa NE 6.3 km/h 6.3 km/h 51 % 0 mm
22:54 -7.3 °C -13.1 °C 34462.7 hPa NNE 9 km/h 9 km/h 51 % 0 mm
22:55 -8.6 °C -12.3 °C 34496.6 hPa NNE 5.1 km/h 7.7 km/h 64 % 0 mm
22:59 -7.3 °C -13.1 °C 34462.7 hPa NNE 6 km/h 6 km/h 51 % 0 mm
23:04 -7.4 °C -13 °C 34462.7 hPa NE 3.7 km/h 3.7 km/h 52 % 0 mm
23:05 -8.6 °C -12.3 °C 34496.6 hPa NE 5.1 km/h 10.3 km/h 64 % 0 mm
23:09 -7.4 °C -13 °C 34496.6 hPa NNE 3.1 km/h 3.1 km/h 52 % 0 mm
23:14 -7.5 °C -13.1 °C 34496.6 hPa NNW 2.3 km/h   52 % 0 mm
23:15 -8.6 °C -12.5 °C 34462.7 hPa NNE 2.6 km/h 10.3 km/h 63 % 0 mm
23:19 -7.5 °C -12.9 °C 34496.6 hPa NNE 3.1 km/h 3.1 km/h 53 % 0 mm
23:24 -7.5 °C -12.9 °C 34462.7 hPa NE 3.1 km/h   53 % 0 mm
23:25 -8.8 °C -12.6 °C 34462.7 hPa West 2.6 km/h 7.7 km/h 64 % 0 mm
23:29 -7.6 °C -12.8 °C 34462.7 hPa Calm     54 % 0 mm
23:34 -7.6 °C -12.8 °C 34462.7 hPa Calm     54 % 0 mm
23:35 -8.8 °C -12.6 °C 34462.7 hPa WSW 2.6 km/h 5.1 km/h 64 % 0 mm
23:39 -7.6 °C -12.9 °C 34428.8 hPa NNE 3.1 km/h   54 % 0 mm
23:44 -7.7 °C -12.8 °C 34428.8 hPa NNE 3.1 km/h   55 % 0 mm
23:45 -8.8 °C -12.6 °C 34462.7 hPa West 2.6 km/h 5.1 km/h 64 % 0 mm
23:49 -7.7 °C -12.8 °C 34428.8 hPa Calm     55 % 0 mm
23:54 -7.8 °C -12.7 °C 34462.7 hPa NW 3.1 km/h   56 % 0 mm
23:55 -9 °C -12.7 °C 34462.7 hPa WSW 2.6 km/h 5.1 km/h 65 % 0 mm
23:59 -7.8 °C -12.8 °C 34462.7 hPa Calm     56 % 0 mm
Meteo Sesrovires
Elogis d' Weather Underground - 1.5 mb

Guio original per  Jim McMurry - jmcmurry@mwt.net Adaptat per a la plantilla per  Wim van der Kuil - Leuven-Template.eu

Trobareu la nostra informacio del temps tambe a:

Weather Underground

AWEKAS